Time;durP1;ratioP1;P1;durP2;ratioP2;P2;SDS_P1;SDS_P2;PMS_P1;PMS_P2;Temp;Humidity;BMP_temperature;BMP_pressure;BME280_temperature;BME280_humidity;BME280_pressure;Samples;Min_cycle;Max_cycle;Signal;HPM_P1;HPM_P2
2022/10/17 00:00:37;;;;;;;8.70;7.82;;;;;;;8.72;63.98;96198.53;5118300;28;20194;-69
2022/10/17 00:03:04;;;;;;;11.73;8.88;;;;;;;8.73;64.06;96191.09;5118065;28;20243;-69
2022/10/17 00:05:31;;;;;;;9.82;8.32;;;;;;;8.68;64.27;96198.34;5117744;28;20206;-69
2022/10/17 00:07:57;;;;;;;9.40;8.45;;;;;;;8.65;64.30;96192.66;5135889;28;20187;-69
2022/10/17 00:10:24;;;;;;;9.63;8.57;;;;;;;8.62;64.31;96202.34;5118094;28;20203;-69
2022/10/17 00:12:52;;;;;;;9.68;8.60;;;;;;;8.56;64.37;96198.06;5117568;28;20202;-69
2022/10/17 00:15:20;;;;;;;10.85;8.45;;;;;;;8.56;64.69;96206.31;5117833;28;20191;-69
2022/10/17 00:17:47;;;;;;;9.68;8.68;;;;;;;8.58;64.51;96204.09;5117942;28;20200;-69
2022/10/17 00:20:14;;;;;;;9.75;8.73;;;;;;;8.60;64.63;96201.81;5135441;28;20595;-69
2022/10/17 00:22:41;;;;;;;9.68;8.68;;;;;;;8.60;64.38;96196.31;5136178;28;20175;-69
2022/10/17 00:25:08;;;;;;;8.90;8.00;;;;;;;8.57;64.32;96204.38;5135333;28;20206;-69
2022/10/17 00:27:35;;;;;;;9.52;8.20;;;;;;;8.58;64.22;96201.34;5135689;28;20244;-69
2022/10/17 00:30:05;;;;;;;10.00;8.90;;;;;;;8.57;64.15;96207.97;5135742;28;20204;-69
2022/10/17 00:32:32;;;;;;;10.10;9.10;;;;;;;8.55;64.04;96209.41;5117422;28;20203;-69
2022/10/17 00:34:59;;;;;;;11.32;9.38;;;;;;;8.55;64.23;96201.16;5135997;28;20180;-69
2022/10/17 00:37:26;;;;;;;10.75;8.98;;;;;;;8.50;64.24;96209.53;5135983;27;20203;-69
2022/10/17 00:39:53;;;;;;;9.68;8.27;;;;;;;8.41;64.38;96207.50;5139398;27;20179;-69
2022/10/17 00:42:20;;;;;;;9.32;8.43;;;;;;;8.36;64.50;96212.31;5121010;27;20607;-69
2022/10/17 00:45:20;;;;;;;9.57;8.63;;;;;;;8.32;64.30;96214.06;5139346;27;20179;-69
2022/10/17 00:47:50;;;;;;;10.27;8.48;;;;;;;8.23;64.37;96219.44;5105716;27;20210;-69
2022/10/17 00:50:16;;;;;;;9.18;8.27;;;;;;;8.24;64.69;96212.03;5139497;27;20179;-69
2022/10/17 00:52:44;;;;;;;8.93;8.07;;;;;;;8.27;65.00;96216.91;5138913;27;20198;-69
2022/10/17 00:55:14;;;;;;;9.48;8.57;;;;;;;8.25;64.86;96214.47;5121018;27;20231;-69
2022/10/17 00:57:42;;;;;;;10.85;8.68;;;;;;;8.27;65.04;96217.72;5121079;27;20218;-69
2022/10/17 01:00:11;;;;;;;9.15;8.23;;;;;;;8.27;64.84;96212.22;5121705;27;20210;-69
2022/10/17 01:02:39;;;;;;;9.55;8.63;;;;;;;8.25;64.74;96214.47;5121073;27;20187;-69
2022/10/17 01:05:07;;;;;;;9.07;7.85;;;;;;;8.24;64.72;96215.56;5120872;27;20187;-69
2022/10/17 01:07:34;;;;;;;8.68;7.50;;;;;;;8.22;64.69;96220.59;5138456;27;20206;-69
2022/10/17 01:10:01;;;;;;;8.20;7.40;;;;;;;8.18;64.47;96217.66;5138875;27;20183;-68
2022/10/17 01:12:33;;;;;;;9.23;8.32;;;;;;;8.14;64.58;96216.63;5120840;27;20195;-69
2022/10/17 01:15:07;;;;;;;9.27;8.35;;;;;;;8.09;64.72;96218.69;5138456;27;20214;-68
2022/10/17 01:17:45;;;;;;;8.70;7.80;;;;;;;8.01;65.09;96216.66;5120652;27;20213;-68
2022/10/17 01:20:30;;;;;;;9.13;7.78;;;;;;;7.99;65.26;96217.00;5138395;27;20194;-69
2022/10/17 01:23:07;;;;;;;9.57;7.47;;;;;;;8.02;65.26;96216.34;5138603;27;20183;-69
2022/10/17 01:25:42;;;;;;;8.40;7.53;;;;;;;8.03;65.06;96214.44;5120526;27;20225;-69
2022/10/17 01:28:21;;;;;;;8.32;7.53;;;;;;;7.96;64.69;96221.16;5138539;27;20201;-68
2022/10/17 01:30:57;;;;;;;8.57;7.78;;;;;;;7.94;65.07;96219.81;5138235;27;20671;-68
2022/10/17 01:33:31;;;;;;;9.05;8.15;;;;;;;7.94;65.08;96215.13;5120425;27;20198;-69
2022/10/17 01:36:00;;;;;;;9.00;8.07;;;;;;;7.93;65.38;96219.03;5138178;27;20530;-69
2022/10/17 01:38:30;;;;;;;9.40;7.88;;;;;;;7.92;65.38;96213.84;5138790;27;20214;-68
2022/10/17 01:41:02;;;;;;;8.00;7.20;;;;;;;7.94;65.45;96219.81;5119898;27;20195;-69
2022/10/17 01:43:34;;;;;;;8.35;7.55;;;;;;;7.93;65.32;96219.03;5120251;27;20191;-68
2022/10/17 01:46:07;;;;;;;8.13;7.32;;;;;;;7.92;65.48;96222.91;5120021;27;20219;-69
2022/10/17 01:48:36;;;;;;;8.45;7.55;;;;;;;7.92;65.55;96220.16;5120250;27;20199;-69
2022/10/17 01:51:06;;;;;;;7.93;7.22;;;;;;;7.91;65.41;96224.00;5138190;27;20175;-68
2022/10/17 01:53:34;;;;;;;8.88;7.97;;;;;;;7.93;65.09;96226.44;5130469;27;20263;-68
2022/10/17 01:56:03;;;;;;;9.55;8.10;;;;;;;7.94;64.77;96233.56;5117382;28;20184;-69
2022/10/17 01:58:33;;;;;;;9.30;8.40;;;;;;;7.87;64.94;96224.94;5099668;28;20188;-68
2022/10/17 02:01:06;;;;;;;9.07;8.00;;;;;;;7.80;64.89;96228.09;5098972;28;20206;-68
2022/10/17 02:03:34;;;;;;;10.18;7.97;;;;;;;7.77;65.18;96230.63;5117102;28;20186;-68
2022/10/17 02:06:01;;;;;;;8.75;7.90;;;;;;;7.75;65.79;96230.94;5098783;28;20666;-68
2022/10/17 02:08:30;;;;;;;10.23;8.38;;;;;;;7.73;65.75;96230.44;5117155;28;20199;-68
2022/10/17 02:10:59;;;;;;;9.52;8.55;;;;;;;7.72;65.70;96235.09;5099245;28;20224;-68
2022/10/17 02:13:35;;;;;;;11.80;8.27;;;;;;;7.70;65.56;96231.06;5117047;28;20202;-68
2022/10/17 02:16:13;;;;;;;9.57;8.68;;;;;;;7.67;65.30;96231.66;5117407;28;20176;-68
2022/10/17 02:18:52;;;;;;;9.60;8.25;;;;;;;7.60;65.38;96243.06;5099334;28;20234;-68
2022/10/17 02:21:22;;;;;;;9.30;8.00;;;;;;;7.59;65.19;96246.09;5116615;28;20184;-68
2022/10/17 02:23:53;;;;;;;9.13;8.23;;;;;;;7.57;65.56;96234.63;5098734;28;20649;-68
2022/10/17 02:26:22;;;;;;;9.38;8.43;;;;;;;7.57;65.49;96234.63;5116701;28;20203;-68
2022/10/17 02:28:58;;;;;;;9.48;8.48;;;;;;;7.58;65.68;96241.72;5116878;28;20191;-68
2022/10/17 02:31:30;;;;;;;9.02;8.15;;;;;;;7.57;65.67;96240.91;5098750;28;20207;-68
2022/10/17 02:33:59;;;;;;;9.45;8.48;;;;;;;7.57;65.87;96242.84;5116727;28;20199;-68
2022/10/17 02:36:28;;;;;;;8.77;7.90;;;;;;;7.52;65.54;96246.53;5116551;28;20190;-68
2022/10/17 02:38:56;;;;;;;9.70;8.80;;;;;;;7.50;65.99;96253.44;5116545;28;20192;-68
2022/10/17 02:41:24;;;;;;;10.38;9.30;;;;;;;7.53;66.22;96255.56;5116426;28;20183;-68
2022/10/17 02:43:53;;;;;;;9.75;8.45;;;;;;;7.53;66.00;96250.88;5116172;28;20626;-68
2022/10/17 02:46:22;;;;;;;9.02;8.13;;;;;;;7.52;65.55;96254.75;5116297;28;20277;-68
2022/10/17 02:48:52;;;;;;;9.20;8.30;;;;;;;7.52;65.49;96260.25;5098692;28;20198;-68
2022/10/17 02:51:24;;;;;;;10.77;9.68;;;;;;;7.53;65.34;96261.06;5098106;28;20203;-68
2022/10/17 02:53:55;;;;;;;9.40;8.50;;;;;;;7.47;65.65;96260.34;5105748;27;20235;-68
2022/10/17 02:56:22;;;;;;;11.23;9.68;;;;;;;7.41;65.55;96267.88;5118799;27;20202;-68
2022/10/17 02:58:52;;;;;;;12.43;10.43;;;;;;;7.35;65.46;96269.06;5118812;27;20202;-68
2022/10/17 03:01:19;;;;;;;13.73;11.23;;;;;;;7.29;65.71;96273.00;5117814;27;20202;-68
2022/10/17 03:03:46;;;;;;;12.30;11.10;;;;;;;7.26;66.08;96273.63;5118964;27;20536;-69
2022/10/17 03:06:14;;;;;;;13.45;10.95;;;;;;;7.30;66.17;96268.34;5118901;27;20210;-69
2022/10/17 03:08:41;;;;;;;15.38;12.98;;;;;;;7.30;65.63;96280.16;5118822;27;20201;-69
2022/10/17 03:11:08;;;;;;;14.13;12.60;;;;;;;7.24;65.54;96276.66;5118547;27;20191;-69
2022/10/17 03:13:34;;;;;;;18.98;13.50;;;;;;;7.23;65.66;96285.22;5118386;27;20195;-69
2022/10/17 03:16:01;;;;;;;15.90;12.90;;;;;;;7.15;65.68;96285.88;5118765;27;20198;-69
2022/10/17 03:18:28;;;;;;;13.30;11.95;;;;;;;7.13;65.92;96286.22;5136539;27;20175;-69
2022/10/17 03:20:55;;;;;;;14.75;12.02;;;;;;;7.11;66.11;96287.63;5136474;27;20190;-69
2022/10/17 03:23:23;;;;;;;14.45;11.73;;;;;;;7.14;66.46;96292.50;5118361;27;20206;-69
2022/10/17 03:25:50;;;;;;;14.00;12.68;;;;;;;7.17;66.22;96284.47;5118455;28;20195;-69
2022/10/17 03:28:17;;;;;;;13.50;12.15;;;;;;;7.09;66.15;96285.19;5117921;27;20206;-68
2022/10/17 03:30:43;;;;;;;13.48;12.07;;;;;;;7.02;66.33;96287.50;5136297;27;20199;-69
2022/10/17 03:33:10;;;;;;;12.32;10.98;;;;;;;7.06;66.19;96288.53;5117949;27;20629;-69
2022/10/17 03:35:39;;;;;;;12.88;11.52;;;;;;;7.07;65.71;96287.41;5118396;28;20202;-68
2022/10/17 03:38:05;;;;;;;13.37;12.07;;;;;;;7.07;65.90;96295.63;5136650;27;20203;-66
2022/10/17 03:40:34;;;;;;;13.27;11.68;;;;;;;7.05;65.85;96286.09;5136393;28;20183;-67
2022/10/17 03:43:00;;;;;;;12.98;11.63;;;;;;;7.03;65.95;96296.53;5118396;28;20198;-67
2022/10/17 03:45:27;;;;;;;14.02;12.30;;;;;;;7.02;66.20;96301.22;5136089;28;20186;-66
2022/10/17 03:47:54;;;;;;;14.00;11.63;;;;;;;6.97;66.08;96293.06;5136243;28;20191;-67
2022/10/17 03:50:20;;;;;;;13.75;11.77;;;;;;;6.98;66.31;96297.44;5136203;28;20205;-67
2022/10/17 03:52:48;;;;;;;12.55;11.30;;;;;;;6.92;66.18;96293.16;5136286;28;20187;-67
2022/10/17 03:55:15;;;;;;;13.23;11.90;;;;;;;6.88;66.33;96295.69;5116645;28;20255;-67
2022/10/17 03:57:43;;;;;;;15.77;11.90;;;;;;;6.87;66.32;96298.72;5097643;28;20194;-67
2022/10/17 04:00:11;;;;;;;13.95;10.95;;;;;;;6.88;66.62;96301.16;5115242;28;20250;-67
2022/10/17 04:02:38;;;;;;;15.95;11.70;;;;;;;6.84;66.55;96307.56;5097885;28;20200;-67
2022/10/17 04:05:05;;;;;;;13.88;11.40;;;;;;;6.80;66.34;96307.34;5115738;28;20199;-67
2022/10/17 04:07:32;;;;;;;14.10;12.20;;;;;;;6.72;66.45;96311.56;5097476;28;20211;-67
2022/10/17 04:09:59;;;;;;;15.75;11.80;;;;;;;6.69;67.08;96303.13;5115408;28;20195;-67
2022/10/17 04:12:26;;;;;;;13.68;12.38;;;;;;;6.74;66.77;96312.06;5097932;28;20212;-67
2022/10/17 04:14:54;;;;;;;14.45;12.82;;;;;;;6.76;66.99;96314.53;5101704;28;20207;-67
2022/10/17 04:17:21;;;;;;;16.80;13.60;;;;;;;6.75;67.06;96313.72;5119252;28;20233;-67
2022/10/17 04:19:49;;;;;;;15.43;13.82;;;;;;;6.75;67.04;96315.63;5119316;28;20176;-67
2022/10/17 04:22:15;;;;;;;15.70;13.18;;;;;;;6.75;67.09;96308.25;5101851;28;20206;-67
2022/10/17 04:24:43;;;;;;;15.25;13.38;;;;;;;6.79;67.25;96316.69;5101411;28;20192;-67
2022/10/17 04:27:10;;;;;;;14.68;13.23;;;;;;;6.81;67.14;96319.94;5101622;28;20204;-67
2022/10/17 04:29:37;;;;;;;17.70;13.57;;;;;;;6.76;67.32;96320.00;5101335;28;20199;-67
2022/10/17 04:32:05;;;;;;;23.08;13.15;;;;;;;6.73;67.50;96313.19;5100917;28;20203;-67
2022/10/17 04:34:32;;;;;;;16.50;13.13;;;;;;;6.74;67.37;96320.28;5119267;28;20186;-67
2022/10/17 04:36:59;;;;;;;17.15;13.60;;;;;;;6.75;67.38;96323.84;5100903;28;20207;-67
2022/10/17 04:39:25;;;;;;;18.55;14.10;;;;;;;6.77;67.58;96323.56;5101029;28;20519;-68
2022/10/17 04:41:52;;;;;;;20.70;14.13;;;;;;;6.70;66.90;96323.94;5101776;28;20195;-67
2022/10/17 04:44:19;;;;;;;20.85;13.50;;;;;;;6.66;67.25;96323.72;5101416;28;20194;-67
2022/10/17 04:46:46;;;;;;;19.70;14.52;;;;;;;6.66;67.78;96331.94;5101054;28;20599;-67
2022/10/17 04:49:14;;;;;;;20.17;15.38;;;;;;;6.65;67.68;96330.31;5101742;28;20195;-67
2022/10/17 04:51:41;;;;;;;16.75;14.55;;;;;;;6.65;68.03;96329.50;5100945;28;20203;-67
2022/10/17 04:54:08;;;;;;;15.25;13.50;;;;;;;6.67;67.63;96330.00;5110456;27;20239;-67
2022/10/17 04:56:34;;;;;;;18.30;13.27;;;;;;;6.68;67.90;96331.63;5139034;27;20198;-67
2022/10/17 04:59:01;;;;;;;14.40;12.68;;;;;;;6.72;68.05;96335.44;5139141;27;20201;-67
2022/10/17 05:01:28;;;;;;;19.95;13.98;;;;;;;6.71;67.79;96342.81;5120964;27;20214;-67
2022/10/17 05:03:55;;;;;;;20.00;13.93;;;;;;;6.70;67.93;96338.47;5121113;27;20207;-67
2022/10/17 05:06:26;;;;;;;21.83;14.30;;;;;;;6.71;68.16;96342.81;5120588;27;20191;-67
2022/10/17 05:08:53;;;;;;;24.80;13.98;;;;;;;6.72;67.93;96340.91;5139148;27;20187;-67
2022/10/17 05:11:22;;;;;;;18.98;14.15;;;;;;;6.71;68.00;96344.75;5138855;27;20186;-67
2022/10/17 05:13:53;;;;;;;18.42;14.77;;;;;;;6.70;68.19;96341.19;5120915;27;20252;-67
2022/10/17 05:16:20;;;;;;;23.58;14.88;;;;;;;6.68;68.51;96348.09;5120855;27;20195;-67
2022/10/17 05:18:48;;;;;;;20.92;13.98;;;;;;;6.67;68.35;96341.78;5120501;27;20206;-67
2022/10/17 05:21:15;;;;;;;19.92;14.73;;;;;;;6.67;68.45;96360.16;5138791;27;20209;-67
2022/10/17 05:23:43;;;;;;;21.10;14.95;;;;;;;6.67;68.37;96355.50;5120399;27;20206;-67
2022/10/17 05:26:11;;;;;;;25.20;15.02;;;;;;;6.69;68.48;96363.44;5138414;27;20194;-67
2022/10/17 05:28:37;;;;;;;27.33;15.35;;;;;;;6.71;68.32;96367.50;5120503;27;20222;-67
2022/10/17 05:31:04;;;;;;;19.63;13.43;;;;;;;6.77;68.33;96362.78;5120634;27;20209;-67
2022/10/17 05:33:34;;;;;;;21.75;13.40;;;;;;;6.74;68.28;96366.91;5120385;27;20187;-67
2022/10/17 05:36:00;;;;;;;19.77;14.02;;;;;;;6.72;68.56;96373.81;5120410;27;20194;-67
2022/10/17 05:38:27;;;;;;;20.17;13.70;;;;;;;6.75;68.71;96374.03;5138898;27;20209;-67
2022/10/17 05:40:58;;;;;;;16.83;13.43;;;;;;;6.81;68.78;96376.69;5120382;27;20194;-66
2022/10/17 05:43:25;;;;;;;14.82;13.32;;;;;;;6.81;68.85;96377.50;5138319;27;20183;-67
2022/10/17 05:45:52;;;;;;;18.42;14.27;;;;;;;6.83;68.90;96380.78;5120206;27;20206;-67
2022/10/17 05:48:20;;;;;;;15.30;13.65;;;;;;;6.87;68.64;96381.00;5138294;27;20214;-67
2022/10/17 05:50:46;;;;;;;15.73;13.48;;;;;;;6.93;69.04;96379.78;5120514;27;20195;-67
2022/10/17 05:53:13;;;;;;;15.73;12.75;;;;;;;6.99;69.16;96384.91;5118038;27;20206;-67
2022/10/17 05:55:40;;;;;;;16.65;13.80;;;;;;;7.05;68.73;96388.41;5117625;28;20194;-67
2022/10/17 05:58:08;;;;;;;16.27;14.57;;;;;;;7.08;68.85;96385.06;5099473;28;20206;-67
2022/10/17 06:00:35;;;;;;;16.60;14.60;;;;;;;7.11;69.01;96395.41;5099309;28;20199;-67
2022/10/17 06:03:01;;;;;;;15.73;13.48;;;;;;;7.16;69.14;96400.84;5099643;28;20196;-67
2022/10/17 06:05:28;;;;;;;15.07;12.38;;;;;;;7.19;68.87;96402.19;5099206;28;20214;-67
2022/10/17 06:07:55;;;;;;;13.77;12.32;;;;;;;7.22;68.95;96399.63;5099299;28;20223;-67
2022/10/17 06:10:22;;;;;;;13.50;11.97;;;;;;;7.28;68.89;96402.31;5099241;28;20188;-67
2022/10/17 06:12:48;;;;;;;11.52;10.32;;;;;;;7.32;69.22;96406.09;5116898;28;20196;-67
2022/10/17 06:15:17;;;;;;;14.30;11.87;;;;;;;7.39;68.92;96406.50;5117251;28;20592;-67
2022/10/17 06:17:46;;;;;;;15.52;11.93;;;;;;;7.42;68.78;96404.00;5117429;28;20188;-67
2022/10/17 06:20:13;;;;;;;13.95;12.60;;;;;;;7.47;69.07;96411.31;5117210;28;20194;-67
2022/10/17 06:22:39;;;;;;;13.07;11.73;;;;;;;7.53;68.77;96412.88;5099351;28;20199;-67
2022/10/17 06:25:07;;;;;;;12.88;11.63;;;;;;;7.62;69.05;96404.75;5098913;28;20191;-67
2022/10/17 06:27:33;;;;;;;12.10;10.73;;;;;;;7.70;68.93;96415.06;5116549;28;20219;-67
2022/10/17 06:30:00;;;;;;;12.57;11.38;;;;;;;7.76;68.65;96413.03;5117057;28;20188;-67
2022/10/17 06:32:28;;;;;;;13.70;11.98;;;;;;;7.85;68.72;96414.78;5098713;28;20206;-67
2022/10/17 06:34:55;;;;;;;15.80;12.48;;;;;;;7.91;68.84;96424.53;5115979;28;20188;-67
2022/10/17 06:37:22;;;;;;;21.42;19.35;;;;;;;7.97;68.26;96422.53;5098317;28;20278;-67
2022/10/17 06:39:50;;;;;;;18.58;16.67;;;;;;;8.04;68.28;96431.19;5116579;28;20184;-67
2022/10/17 06:42:17;;;;;;;16.52;15.02;;;;;;;8.09;68.81;96430.25;5116612;28;20195;-67
2022/10/17 06:44:43;;;;;;;18.20;15.98;;;;;;;8.16;68.64;96425.19;5116239;28;20187;-67
2022/10/17 06:47:11;;;;;;;20.65;18.45;;;;;;;8.22;69.01;96425.91;5116481;28;20212;-67
2022/10/17 06:49:40;;;;;;;19.13;17.23;;;;;;;8.29;68.62;96420.81;5098568;28;20291;-67
2022/10/17 06:52:06;;;;;;;19.35;17.35;;;;;;;8.38;68.36;96430.81;5098444;28;20202;-68
2022/10/17 06:54:33;;;;;;;18.42;16.63;;;;;;;8.49;68.13;96425.91;5129384;27;20250;-68
2022/10/17 06:57:01;;;;;;;16.27;14.75;;;;;;;8.58;67.96;96429.59;5136795;27;20168;-68
2022/10/17 06:59:28;;;;;;;18.00;16.15;;;;;;;8.65;67.59;96418.19;5136663;27;20187;-68
2022/10/17 07:01:55;;;;;;;18.13;16.30;;;;;;;8.70;67.38;96429.06;5119186;27;20199;-68
2022/10/17 07:04:21;;;;;;;18.63;16.75;;;;;;;8.78;66.91;96435.78;5136790;27;20175;-68
2022/10/17 07:06:49;;;;;;;18.00;16.15;;;;;;;8.74;65.82;96432.81;5118800;27;20199;-68
2022/10/17 07:09:16;;;;;;;17.58;15.88;;;;;;;8.75;66.05;96423.47;5118494;27;20199;-68
2022/10/17 07:11:43;;;;;;;19.27;15.95;;;;;;;8.79;65.61;96429.19;5136779;27;20264;-68
2022/10/17 07:14:10;;;;;;;17.27;15.55;;;;;;;8.83;65.51;96432.94;5136557;27;20187;-68
2022/10/17 07:16:37;;;;;;;19.50;16.65;;;;;;;8.93;66.24;96424.44;5136576;27;20201;-68
2022/10/17 07:19:04;;;;;;;17.30;15.48;;;;;;;9.07;66.20;96424.41;5136535;27;20264;-68
2022/10/17 07:21:31;;;;;;;17.58;15.60;;;;;;;9.16;65.88;96426.13;5118313;27;20252;-68
2022/10/17 07:24:00;;;;;;;16.13;14.55;;;;;;;9.26;65.55;96425.06;5136221;27;20278;-68
2022/10/17 07:26:27;;;;;;;15.40;13.80;;;;;;;9.37;65.98;96426.44;5136505;27;20179;-68
2022/10/17 07:28:55;;;;;;;16.17;14.52;;;;;;;9.50;66.12;96429.44;5136013;27;20221;-68
2022/10/17 07:31:22;;;;;;;15.10;13.60;;;;;;;9.61;65.71;96437.16;5118206;27;20535;-68
2022/10/17 07:33:50;;;;;;;15.45;13.18;;;;;;;9.65;65.19;96426.31;5118875;27;20195;-68
2022/10/17 07:36:18;;;;;;;14.07;12.60;;;;;;;9.70;64.19;96431.72;5135849;27;20294;-68
2022/10/17 07:38:45;;;;;;;14.10;12.80;;;;;;;9.78;64.76;96430.13;5118446;27;20179;-68
2022/10/17 07:41:13;;;;;;;17.13;14.18;;;;;;;9.87;64.75;96431.78;5136209;28;20185;-68
2022/10/17 07:43:41;;;;;;;15.88;14.15;;;;;;;9.95;64.24;96435.75;5118172;28;20515;-68
2022/10/17 07:46:10;;;;;;;15.57;13.98;;;;;;;10.08;64.33;96437.59;5117952;27;20226;-68
2022/10/17 07:48:37;;;;;;;15.15;13.60;;;;;;;10.17;63.52;96437.66;5140272;27;20211;-68
2022/10/17 07:51:05;;;;;;;17.95;15.13;;;;;;;10.27;63.67;96445.66;5122321;27;20191;-68
2022/10/17 07:53:32;;;;;;;17.08;15.18;;;;;;;10.30;62.87;96447.78;5140118;27;20250;-68
2022/10/17 07:55:59;;;;;;;16.65;14.65;;;;;;;10.35;62.88;96444.09;5122582;27;20236;-68
2022/10/17 07:58:30;;;;;;;16.17;14.48;;;;;;;10.41;62.36;96439.25;5140265;27;20198;-68
2022/10/17 08:01:00;;;;;;;18.00;15.57;;;;;;;10.48;62.32;96429.38;5140307;27;20190;-68
2022/10/17 08:03:27;;;;;;;16.92;15.13;;;;;;;10.56;62.36;96428.56;5122095;27;20191;-68
2022/10/17 08:05:57;;;;;;;17.80;15.90;;;;;;;10.67;61.99;96434.63;5122200;27;20617;-68
2022/10/17 08:08:24;;;;;;;17.45;15.05;;;;;;;10.78;62.25;96426.84;5139678;27;20214;-68
2022/10/17 08:10:56;;;;;;;16.43;14.60;;;;;;;10.86;61.75;96428.84;5122220;27;20191;-68
2022/10/17 08:13:23;;;;;;;20.40;15.77;;;;;;;10.95;62.00;96423.31;5121839;27;20191;-68
2022/10/17 08:15:54;;;;;;;17.90;15.27;;;;;;;11.12;62.15;96426.13;5139520;27;20302;-68
2022/10/17 08:18:21;;;;;;;21.90;17.70;;;;;;;11.32;61.77;96430.16;5121046;27;20199;-68
2022/10/17 08:20:51;;;;;;;20.48;16.27;;;;;;;11.48;59.55;96422.22;5121878;27;20195;-68
2022/10/17 08:23:18;;;;;;;18.98;16.98;;;;;;;11.53;59.56;96420.09;5139756;27;20244;-68
2022/10/17 08:25:45;;;;;;;18.88;15.95;;;;;;;11.68;59.38;96423.50;5121883;27;20207;-68
2022/10/17 08:28:11;;;;;;;20.17;17.77;;;;;;;11.77;59.66;96419.59;5121588;27;20214;-69
2022/10/17 08:30:38;;;;;;;21.58;17.77;;;;;;;11.92;59.52;96414.72;5139649;27;20221;-68
2022/10/17 08:33:06;;;;;;;20.53;16.57;;;;;;;12.00;58.39;96414.69;5121440;27;20206;-68
2022/10/17 08:35:34;;;;;;;23.83;16.83;;;;;;;12.17;58.21;96408.31;5139267;27;20190;-68
2022/10/17 08:38:01;;;;;;;21.70;16.87;;;;;;;12.36;56.71;96405.13;5140102;27;20195;-68
2022/10/17 08:40:32;;;;;;;20.27;16.02;;;;;;;12.41;56.50;96401.34;5121661;27;20573;-68
2022/10/17 08:43:26;;;;;;;18.40;16.58;;;;;;;12.52;57.10;96406.19;5121211;27;20211;-68
2022/10/17 08:45:55;;;;;;;18.33;16.40;;;;;;;12.62;57.20;96409.72;5118270;27;20199;-68
2022/10/17 08:48:26;;;;;;;19.02;16.80;;;;;;;12.70;55.36;96406.91;5121540;27;20214;-68
2022/10/17 08:50:55;;;;;;;17.92;16.05;;;;;;;12.84;57.08;96417.75;5138938;27;20179;-68
2022/10/17 08:53:27;;;;;;;19.58;15.90;;;;;;;12.94;56.08;96408.25;5136156;27;20228;-67
2022/10/17 08:55:55;;;;;;;17.40;15.50;;;;;;;12.98;55.30;96418.31;5118614;28;20184;-68
2022/10/17 08:58:23;;;;;;;18.17;15.45;;;;;;;13.02;54.29;96410.94;5117587;28;20188;-67
2022/10/17 09:00:56;;;;;;;18.35;16.27;;;;;;;13.09;54.35;96415.16;5118524;28;20188;-68
2022/10/17 09:03:39;;;;;;;20.73;16.23;;;;;;;13.20;53.43;96408.06;5100647;28;20188;-68
2022/10/17 09:06:15;;;;;;;21.50;17.70;;;;;;;13.41;53.20;96406.13;5100403;28;20658;-68
2022/10/17 09:08:49;;;;;;;18.80;16.83;;;;;;;13.63;52.17;96412.47;5118490;28;20210;-68
2022/10/17 09:11:25;;;;;;;17.90;16.20;;;;;;;13.77;52.92;96407.47;5100647;28;20195;-68
2022/10/17 09:14:00;;;;;;;19.80;16.20;;;;;;;13.95;52.01;96402.56;5100752;28;20210;-68
2022/10/17 09:16:41;;;;;;;11.77;10.57;;;;;;;14.14;49.58;96402.00;5100403;28;20195;-68
2022/10/17 09:19:12;;;;;;;10.40;8.63;;;;;;;14.37;46.98;96403.19;5117848;28;20176;-68
2022/10/17 09:21:43;;;;;;;7.43;6.47;;;;;;;14.40;42.50;96401.72;5100182;28;20195;-68
2022/10/17 09:24:14;;;;;;;8.70;7.90;;;;;;;14.49;43.78;96398.81;5118231;28;20176;-68
2022/10/17 09:26:41;;;;;;;7.50;6.73;;;;;;;14.63;43.55;96394.59;5117964;28;20242;-71
2022/10/17 09:29:16;;;;;;;9.35;8.13;;;;;;;14.81;42.15;96399.88;5100147;28;20215;-69
2022/10/17 09:31:47;;;;;;;8.70;7.80;;;;;;;14.86;42.46;96403.25;5091917;28;20183;-68
2022/10/17 09:34:16;;;;;;;7.93;7.07;;;;;;;14.95;44.06;96393.97;5117621;28;20210;-68
2022/10/17 09:36:42;;;;;;;7.75;6.95;;;;;;;15.10;43.34;96401.59;5091972;28;20200;-68
2022/10/17 09:39:13;;;;;;;8.93;6.80;;;;;;;15.19;42.72;96387.59;5117651;28;20198;-67
2022/10/17 09:41:42;;;;;;;6.90;6.30;;;;;;;15.30;42.59;96386.75;5099808;28;20214;-68
2022/10/17 09:44:16;;;;;;;5.93;5.30;;;;;;;15.40;39.78;96379.91;5100362;28;20209;-68
2022/10/17 09:46:51;;;;;;;7.23;5.47;;;;;;;15.46;41.30;96386.00;5117455;28;20194;-68
2022/10/17 09:49:23;;;;;;;5.60;4.85;;;;;;;15.62;40.98;96392.44;5099358;28;20215;-69
2022/10/17 09:51:50;;;;;;;6.67;5.57;;;;;;;15.80;42.06;96392.97;5117380;28;20207;-68
2022/10/17 09:54:21;;;;;;;6.07;5.47;;;;;;;15.98;40.21;96385.13;5117207;28;20236;-68
2022/10/17 09:57:00;;;;;;;6.88;5.57;;;;;;;16.04;38.95;96376.16;5099202;28;20298;-68
2022/10/17 09:59:33;;;;;;;6.30;5.70;;;;;;;16.19;40.72;96382.09;5117329;28;20201;-68
2022/10/17 10:02:16;;;;;;;5.60;5.05;;;;;;;16.28;39.42;96375.19;5117151;28;20267;-68
2022/10/17 10:05:15;;;;;;;5.50;5.00;;;;;;;16.30;37.62;96377.59;5099251;28;20210;-68
2022/10/17 10:07:42;;;;;;;4.67;4.17;;;;;;;16.27;37.50;96372.78;5099249;28;20246;-68
2022/10/17 10:10:24;;;;;;;5.95;4.80;;;;;;;16.27;36.62;96370.81;5117087;28;20222;-68
2022/10/17 10:13:04;;;;;;;6.60;5.10;;;;;;;16.24;37.79;96362.38;5117136;28;20199;-68
2022/10/17 10:15:34;;;;;;;5.95;4.65;;;;;;;16.36;36.81;96365.06;5117072;28;20194;-68
2022/10/17 10:18:02;;;;;;;4.28;3.42;;;;;;;16.50;36.33;96359.84;5099579;28;20309;-68
2022/10/17 10:20:33;;;;;;;3.53;3.23;;;;;;;16.59;34.63;96366.06;5116798;28;20172;-68
2022/10/17 10:23:08;;;;;;;4.50;3.70;;;;;;;16.58;34.57;96361.63;5099151;28;20183;-68
2022/10/17 10:25:35;;;;;;;4.43;3.38;;;;;;;16.58;35.06;96364.41;5098598;28;20192;-68
2022/10/17 10:28:02;;;;;;;3.45;2.72;;;;;;;16.68;32.94;96356.69;5098601;28;20627;-68
2022/10/17 10:30:30;;;;;;;2.50;2.30;;;;;;;16.56;31.58;96358.41;5098508;28;20194;-68
2022/10/17 10:32:58;;;;;;;3.17;2.40;;;;;;;16.54;32.32;96357.16;5116641;28;20258;-68
2022/10/17 10:35:31;;;;;;;3.00;2.70;;;;;;;16.65;34.10;96347.06;5116352;28;20188;-67
2022/10/17 10:37:59;;;;;;;3.58;2.85;;;;;;;16.70;34.05;96332.84;5098647;28;20206;-67
2022/10/17 10:40:28;;;;;;;4.65;3.35;;;;;;;16.67;34.65;96341.16;5099034;28;20199;-67
2022/10/17 10:42:57;;;;;;;4.28;3.30;;;;;;;16.74;35.41;96335.75;5116714;28;20498;-67
2022/10/17 10:45:26;;;;;;;8.55;3.97;;;;;;;16.81;37.84;96339.53;5116471;28;20196;-67
2022/10/17 10:47:56;;;;;;;3.72;3.08;;;;;;;16.95;33.85;96333.47;5098783;28;20191;-67
2022/10/17 10:50:28;;;;;;;3.17;2.90;;;;;;;17.06;33.40;96333.69;5116480;28;20200;-68
2022/10/17 10:53:07;;;;;;;4.60;3.03;;;;;;;17.13;34.66;96328.28;5098596;28;20200;-67
2022/10/17 10:55:38;;;;;;;3.15;2.95;;;;;;;17.21;35.02;96324.50;5118863;27;20191;-67
2022/10/17 10:58:14;;;;;;;4.05;2.90;;;;;;;17.27;36.28;96323.03;5136629;27;20175;-68
2022/10/17 11:00:41;;;;;;;3.00;2.80;;;;;;;17.32;36.15;96316.38;5118915;27;20199;-68
2022/10/17 11:03:15;;;;;;;4.40;3.08;;;;;;;17.33;35.82;96316.00;5136576;27;20488;-67
2022/10/17 11:05:45;;;;;;;4.05;3.10;;;;;;;17.43;34.16;96311.81;5136841;27;20194;-67
2022/10/17 11:08:20;;;;;;;4.82;2.70;;;;;;;17.45;35.49;96311.44;5118421;27;20203;-68
2022/10/17 11:11:00;;;;;;;2.92;2.63;;;;;;;17.45;35.09;96297.50;5118797;27;20202;-68
2022/10/17 11:13:31;;;;;;;4.15;2.80;;;;;;;17.44;33.43;96302.25;5136506;27;20175;-67
2022/10/17 11:16:02;;;;;;;2.88;2.65;;;;;;;17.44;33.90;96304.25;5118786;27;20198;-67
2022/10/17 11:18:34;;;;;;;3.17;2.80;;;;;;;17.33;32.96;96307.63;5136900;27;20308;-67
2022/10/17 11:21:05;;;;;;;3.58;3.00;;;;;;;17.23;32.29;96304.63;5136647;27;20229;-67
2022/10/17 11:23:39;;;;;;;7.25;3.40;;;;;;;17.27;33.35;96302.69;5136088;27;20179;-67
2022/10/17 11:26:09;;;;;;;4.95;3.03;;;;;;;17.32;31.40;96300.44;5118845;27;20210;-68
2022/10/17 11:28:35;;;;;;;4.55;2.78;;;;;;;17.28;30.44;96296.78;5118130;27;20210;-67
2022/10/17 11:31:06;;;;;;;4.55;2.70;;;;;;;17.26;30.73;96296.31;5136402;27;20187;-67
2022/10/17 11:33:41;;;;;;;3.00;2.70;;;;;;;17.28;31.08;96290.38;5136335;27;20187;-67
2022/10/17 11:36:09;;;;;;;3.13;2.83;;;;;;;17.31;30.99;96293.22;5118638;28;20194;-67
2022/10/17 11:38:41;;;;;;;3.50;2.42;;;;;;;17.29;31.20;96295.59;5118335;27;20611;-68